createdAt,value
2023-11-29T00:00:50.667Z,95156.84
2023-11-29T00:03:19.366Z,95153.63
2023-11-29T00:05:47.773Z,95167.47
2023-11-29T00:08:16.217Z,95153.44
2023-11-29T00:10:44.529Z,95158.59
2023-11-29T00:13:14.544Z,95176.41
2023-11-29T00:15:42.824Z,95167.34
2023-11-29T00:18:11.329Z,95156.69
2023-11-29T00:20:39.923Z,95158.47
2023-11-29T00:23:08.581Z,95172.91
2023-11-29T00:25:36.866Z,95158.59
2023-11-29T00:28:05.344Z,95172.22
2023-11-29T00:30:35.107Z,95191.69
2023-11-29T00:33:04.396Z,95192.63
2023-11-29T00:35:32.831Z,95165.84
2023-11-29T00:38:01.431Z,95182.00
2023-11-29T00:40:30.123Z,95178.19
2023-11-29T00:43:04.182Z,95174.09
2023-11-29T00:45:37.863Z,95164.69
2023-11-29T00:48:06.359Z,95208.38
2023-11-29T00:50:35.762Z,95218.44
2023-11-29T00:53:04.851Z,95202.56
2023-11-29T00:55:35.669Z,95203.81
2023-11-29T00:58:07.966Z,95214.31
2023-11-29T01:00:37.729Z,95187.34
2023-11-29T01:03:06.170Z,95216.63
2023-11-29T01:05:34.584Z,95205.09
2023-11-29T01:08:03.317Z,95195.31
2023-11-29T01:10:31.853Z,95207.97
2023-11-29T01:13:00.316Z,95218.63
2023-11-29T01:15:29.094Z,95231.69
2023-11-29T01:17:58.937Z,95222.34
2023-11-29T01:20:27.475Z,95245.56
2023-11-29T01:22:56.258Z,95246.94
2023-11-29T01:25:24.838Z,95260.25
2023-11-29T01:27:53.354Z,95254.53
2023-11-29T01:30:21.769Z,95246.91
2023-11-29T01:32:50.298Z,95238.94
2023-11-29T01:35:20.110Z,95259.75
2023-11-29T01:37:48.557Z,95225.50
2023-11-29T01:40:16.945Z,95258.38
2023-11-29T01:42:45.337Z,95251.50
2023-11-29T01:45:13.703Z,95244.97
2023-11-29T01:47:42.082Z,95241.78
2023-11-29T01:50:12.225Z,95237.53
2023-11-29T01:52:42.569Z,95237.84
2023-11-29T01:55:14.414Z,95257.47
2023-11-29T01:57:43.271Z,95271.25
2023-11-29T02:00:13.283Z,95266.25
2023-11-29T02:02:41.867Z,95259.56
2023-11-29T02:05:10.699Z,95257.06
2023-11-29T02:07:39.727Z,95244.72
2023-11-29T02:10:10.526Z,95248.56
2023-11-29T02:12:39.138Z,95245.78
2023-11-29T02:15:08.367Z,95254.22
2023-11-29T02:17:37.239Z,95250.31
2023-11-29T02:20:06.651Z,95259.59
2023-11-29T02:22:38.111Z,95243.25
2023-11-29T02:25:09.490Z,95266.81
2023-11-29T02:27:37.697Z,95248.47
2023-11-29T02:30:06.874Z,95267.25
2023-11-29T02:32:35.566Z,95258.59
2023-11-29T02:35:03.973Z,95266.81
2023-11-29T02:37:32.295Z,95249.38
2023-11-29T02:40:00.574Z,95271.63
2023-11-29T02:42:30.709Z,95249.28
2023-11-29T02:44:58.839Z,95273.97
2023-11-29T02:47:27.165Z,95274.75
2023-11-29T02:49:55.624Z,95277.78
2023-11-29T02:52:23.729Z,95273.66
2023-11-29T02:54:52.065Z,95272.59
2023-11-29T02:57:20.333Z,95277.81
2023-11-29T02:59:50.262Z,95242.47
2023-11-29T03:02:18.761Z,95270.22
2023-11-29T03:04:47.127Z,95260.59
2023-11-29T03:07:15.465Z,95272.16
2023-11-29T03:09:44.012Z,95242.56
2023-11-29T03:12:12.455Z,95268.88
2023-11-29T03:14:40.867Z,95263.44
2023-11-29T03:17:10.840Z,95233.91
2023-11-29T03:19:39.140Z,95238.25
2023-11-29T03:22:07.520Z,95272.81
2023-11-29T03:24:35.975Z,95277.00
2023-11-29T03:27:07.517Z,95247.44
2023-11-29T03:29:35.952Z,95280.78
2023-11-29T03:32:04.909Z,95274.47
2023-11-29T03:34:34.589Z,95259.50
2023-11-29T03:37:02.951Z,95272.00
2023-11-29T03:39:31.246Z,95263.09
2023-11-29T03:41:59.582Z,95274.16
2023-11-29T03:44:27.862Z,95256.66
2023-11-29T03:46:56.393Z,95278.94
2023-11-29T03:49:24.556Z,95270.88
2023-11-29T03:51:54.247Z,95268.06
2023-11-29T03:54:22.630Z,95266.66
2023-11-29T03:56:51.036Z,95254.59
2023-11-29T03:59:19.252Z,95283.75
2023-11-29T04:01:47.523Z,95285.69
2023-11-29T04:04:15.661Z,95288.09
2023-11-29T04:06:44.227Z,95292.66
2023-11-29T04:09:13.906Z,95257.09
2023-11-29T04:11:42.119Z,95259.88
2023-11-29T04:14:10.273Z,95285.13
2023-11-29T04:16:38.480Z,95286.22
2023-11-29T04:19:06.852Z,95294.75
2023-11-29T04:21:36.363Z,95266.19
2023-11-29T04:24:05.214Z,95286.94
2023-11-29T04:26:36.107Z,95266.06
2023-11-29T04:29:06.049Z,95278.06
2023-11-29T04:31:37.889Z,95291.00
2023-11-29T04:34:13.349Z,95287.59
2023-11-29T04:36:49.675Z,95251.56
2023-11-29T04:39:19.672Z,95282.09
2023-11-29T04:41:49.581Z,95280.56
2023-11-29T04:44:18.005Z,95283.03
2023-11-29T04:46:46.430Z,95280.56
2023-11-29T04:49:14.794Z,95247.47
2023-11-29T04:51:43.452Z,95281.03
2023-11-29T04:54:11.669Z,95266.06
2023-11-29T04:56:39.895Z,95275.03
2023-11-29T04:59:09.586Z,95253.75
2023-11-29T05:01:37.922Z,95284.44
2023-11-29T05:04:06.615Z,95274.91
2023-11-29T05:06:34.882Z,95266.13
2023-11-29T05:09:06.887Z,95282.72
2023-11-29T05:11:35.382Z,95276.53
2023-11-29T05:14:04.198Z,95283.78
2023-11-29T05:16:35.210Z,95285.03
2023-11-29T05:19:03.690Z,95287.00
2023-11-29T05:21:32.163Z,95306.94
2023-11-29T05:24:00.335Z,95285.53
2023-11-29T05:26:28.821Z,95296.22
2023-11-29T05:28:57.169Z,95306.56
2023-11-29T05:31:25.708Z,95297.34
2023-11-29T05:33:55.907Z,95310.72
2023-11-29T05:36:24.328Z,95326.81
2023-11-29T05:38:52.951Z,95322.34
2023-11-29T05:41:21.457Z,95328.84
2023-11-29T05:43:50.005Z,95296.81
2023-11-29T05:46:18.432Z,95307.97
2023-11-29T05:48:46.732Z,95316.91
2023-11-29T05:51:16.311Z,95336.78
2023-11-29T05:53:45.045Z,95313.78
2023-11-29T05:56:13.564Z,95312.28
2023-11-29T05:58:44.284Z,95323.34
2023-11-29T06:01:13.257Z,95300.97
2023-11-29T06:03:41.559Z,95326.81
2023-11-29T06:06:10.011Z,95301.50
2023-11-29T06:08:41.350Z,95303.19
2023-11-29T06:11:10.432Z,95315.22
2023-11-29T06:13:39.085Z,95318.34
2023-11-29T06:16:07.818Z,95331.41
2023-11-29T06:18:38.378Z,95300.53
2023-11-29T06:21:07.024Z,95340.19
2023-11-29T06:23:35.064Z,95349.28
2023-11-29T06:26:05.838Z,95330.09
2023-11-29T06:28:39.760Z,95327.31
2023-11-29T06:31:08.626Z,95330.13
2023-11-29T06:33:37.044Z,95349.19
2023-11-29T06:36:05.862Z,95349.13
2023-11-29T06:38:34.478Z,95324.50
2023-11-29T06:41:04.283Z,95349.72
2023-11-29T06:43:32.716Z,95351.28
2023-11-29T06:46:04.468Z,95341.34
2023-11-29T06:48:34.269Z,95351.94
2023-11-29T06:51:03.533Z,95349.66
2023-11-29T06:53:35.015Z,95307.94
2023-11-29T06:56:05.384Z,95312.16
2023-11-29T06:58:33.758Z,95351.09
2023-11-29T07:01:02.552Z,95364.47
2023-11-29T07:03:31.451Z,95363.03
2023-11-29T07:05:59.945Z,95356.56
2023-11-29T07:08:28.584Z,95367.56
2023-11-29T07:10:59.907Z,95368.31
2023-11-29T07:13:29.637Z,95357.72
2023-11-29T07:15:58.511Z,95354.00
2023-11-29T07:18:27.419Z,95357.78
2023-11-29T07:20:55.789Z,95351.38
2023-11-29T07:23:24.042Z,95357.44
2023-11-29T07:25:52.867Z,95373.97
2023-11-29T07:28:21.087Z,95345.19
2023-11-29T07:30:52.475Z,95370.88
2023-11-29T07:33:20.972Z,95376.84
2023-11-29T07:35:49.652Z,95374.28
2023-11-29T07:38:17.862Z,95380.19
2023-11-29T07:40:46.196Z,95377.94
2023-11-29T07:43:14.873Z,95360.28
2023-11-29T07:45:43.527Z,95358.53
2023-11-29T07:48:13.355Z,95363.97
2023-11-29T07:50:41.708Z,95379.34
2023-11-29T07:53:09.922Z,95381.63
2023-11-29T07:55:38.094Z,95371.72
2023-11-29T07:58:07.460Z,95382.63
2023-11-29T08:00:35.819Z,95381.34
2023-11-29T08:03:03.977Z,95370.06
2023-11-29T08:05:34.980Z,95375.75
2023-11-29T08:08:03.745Z,95370.47
2023-11-29T08:10:32.977Z,95362.88
2023-11-29T08:13:01.472Z,95348.50
2023-11-29T08:15:29.989Z,95375.66
2023-11-29T08:17:58.866Z,95382.78
2023-11-29T08:20:27.481Z,95374.81
2023-11-29T08:22:57.380Z,95382.44
2023-11-29T08:25:27.022Z,95379.78
2023-11-29T08:27:55.711Z,95376.41
2023-11-29T08:30:24.427Z,95389.44
2023-11-29T08:32:52.936Z,95387.03
2023-11-29T08:35:21.472Z,95353.88
2023-11-29T08:37:51.462Z,95384.28
2023-11-29T08:40:21.590Z,95394.06
2023-11-29T08:42:49.911Z,95376.59
2023-11-29T08:45:19.554Z,95385.00
2023-11-29T08:47:49.967Z,95384.06
2023-11-29T08:50:18.672Z,95394.47
2023-11-29T08:52:47.733Z,95395.41
2023-11-29T08:55:16.284Z,95400.97
2023-11-29T08:57:46.325Z,95390.13
2023-11-29T09:00:15.726Z,95394.38
2023-11-29T09:02:45.783Z,95401.38
2023-11-29T09:05:19.475Z,95392.56
2023-11-29T09:07:48.271Z,95402.00
2023-11-29T09:10:17.535Z,95404.34
2023-11-29T09:12:47.598Z,95401.84
2023-11-29T09:15:16.029Z,95389.00
2023-11-29T09:17:47.398Z,95388.63
2023-11-29T09:20:16.440Z,95408.13
2023-11-29T09:22:44.740Z,95391.81
2023-11-29T09:25:13.323Z,95420.38
2023-11-29T09:27:41.393Z,95426.28
2023-11-29T09:30:12.461Z,95423.56
2023-11-29T09:32:43.393Z,95423.19
2023-11-29T09:35:11.735Z,95417.09
2023-11-29T09:37:40.064Z,95429.78
2023-11-29T09:40:09.838Z,95424.72
2023-11-29T09:42:39.207Z,95421.47
2023-11-29T09:45:13.105Z,95415.78
2023-11-29T09:47:41.350Z,95416.19
2023-11-29T09:50:10.212Z,95417.69
2023-11-29T09:52:38.275Z,95421.00
2023-11-29T09:55:07.211Z,95387.84
2023-11-29T09:57:36.329Z,95411.84
2023-11-29T10:00:04.971Z,95406.19
2023-11-29T10:02:34.521Z,95404.63
2023-11-29T10:05:02.646Z,95399.69
2023-11-29T10:07:31.114Z,95399.28
2023-11-29T10:10:01.512Z,95408.41
2023-11-29T10:12:29.609Z,95402.91
2023-11-29T10:15:01.797Z,95411.66
2023-11-29T10:17:39.215Z,95403.06
2023-11-29T10:20:09.896Z,95373.59
2023-11-29T10:22:38.068Z,95404.91
2023-11-29T10:25:17.760Z,95400.22
2023-11-29T10:27:46.737Z,95394.09
2023-11-29T10:30:15.601Z,95399.19
2023-11-29T10:32:49.115Z,95378.38
2023-11-29T10:35:19.897Z,95378.28
2023-11-29T10:37:54.801Z,95393.41
2023-11-29T10:40:24.589Z,95400.38
2023-11-29T10:42:54.750Z,95367.09
2023-11-29T10:45:23.994Z,95372.56
2023-11-29T10:47:58.612Z,95389.66
2023-11-29T10:50:28.647Z,95385.06
2023-11-29T10:52:56.931Z,95380.16
2023-11-29T10:55:26.031Z,95376.44
2023-11-29T10:57:58.354Z,95360.91
2023-11-29T11:00:31.395Z,95369.88
2023-11-29T11:03:01.233Z,95360.19
2023-11-29T11:05:34.646Z,95384.53
2023-11-29T11:08:03.254Z,95347.28
2023-11-29T11:10:32.331Z,95367.78
2023-11-29T11:13:03.376Z,95360.50
2023-11-29T11:15:35.076Z,95346.53
2023-11-29T11:18:26.913Z,95370.94
2023-11-29T11:21:00.599Z,95336.13
2023-11-29T11:23:30.362Z,95348.13
2023-11-29T11:25:59.562Z,95336.09
2023-11-29T11:28:33.263Z,95348.88
2023-11-29T11:31:04.529Z,95331.47
2023-11-29T11:34:09.822Z,95354.47
2023-11-29T11:36:39.964Z,95355.97
2023-11-29T11:39:08.250Z,95354.28
2023-11-29T11:41:36.271Z,95354.72
2023-11-29T11:44:04.314Z,95364.44
2023-11-29T11:46:32.408Z,95364.34
2023-11-29T11:49:00.454Z,95360.00
2023-11-29T11:51:28.484Z,95366.28
2023-11-29T11:53:59.688Z,95358.09
2023-11-29T11:56:27.836Z,95357.00
2023-11-29T11:58:57.609Z,95350.19
2023-11-29T12:01:25.630Z,95360.28
2023-11-29T12:03:53.679Z,95352.97
2023-11-29T12:06:21.756Z,95358.22
2023-11-29T12:08:49.954Z,95360.28
2023-11-29T12:11:20.292Z,95357.13
2023-11-29T12:13:48.329Z,95362.09
2023-11-29T12:16:18.264Z,95364.34
2023-11-29T12:18:46.815Z,95361.69
2023-11-29T12:21:15.221Z,95358.25
2023-11-29T12:23:44.171Z,95363.81
2023-11-29T12:26:15.056Z,95357.84
2023-11-29T12:28:44.765Z,95360.34
2023-11-29T12:31:14.889Z,95362.88
2023-11-29T12:33:43.072Z,95356.88
2023-11-29T12:36:12.135Z,95366.94
2023-11-29T12:38:40.295Z,95359.97
2023-11-29T12:41:09.113Z,95365.88
2023-11-29T12:43:37.064Z,95357.66
2023-11-29T12:46:06.878Z,95369.41
2023-11-29T12:48:34.948Z,95360.00
2023-11-29T12:51:03.472Z,95362.25
2023-11-29T12:53:31.445Z,95375.91
2023-11-29T12:55:59.423Z,95367.38
2023-11-29T12:58:27.361Z,95376.78
2023-11-29T13:00:55.376Z,95368.72
2023-11-29T13:03:24.776Z,95354.88
2023-11-29T13:05:52.853Z,95364.38
2023-11-29T13:08:20.865Z,95370.75
2023-11-29T13:10:48.993Z,95367.88
2023-11-29T13:13:16.913Z,95364.47
2023-11-29T13:15:45.020Z,95365.56
2023-11-29T13:18:13.025Z,95366.41
2023-11-29T13:20:42.580Z,95363.09
2023-11-29T13:23:10.552Z,95367.72
2023-11-29T13:25:38.492Z,95350.44
2023-11-29T13:28:06.506Z,95362.50
2023-11-29T13:30:34.476Z,95365.13
2023-11-29T13:33:02.528Z,95371.03
2023-11-29T13:35:30.537Z,95373.50
2023-11-29T13:38:00.048Z,95370.91
2023-11-29T13:40:28.028Z,95365.31
2023-11-29T13:42:55.974Z,95375.66
2023-11-29T13:45:23.933Z,95374.31
2023-11-29T13:47:52.000Z,95375.69
2023-11-29T13:50:20.303Z,95381.44
2023-11-29T13:52:48.279Z,95380.47
2023-11-29T13:55:17.600Z,95383.78
2023-11-29T13:57:45.760Z,95382.72
2023-11-29T14:00:14.674Z,95378.94
2023-11-29T14:02:43.679Z,95373.78
2023-11-29T14:05:11.849Z,95374.63
2023-11-29T14:07:39.807Z,95377.44
2023-11-29T14:10:10.119Z,95372.66
2023-11-29T14:12:39.412Z,95376.94
2023-11-29T14:15:08.335Z,95387.25
2023-11-29T14:17:36.315Z,95386.19
2023-11-29T14:20:09.540Z,95395.97
2023-11-29T14:22:37.674Z,95396.75
2023-11-29T14:25:06.408Z,95394.16
2023-11-29T14:27:44.847Z,95393.19
2023-11-29T14:30:21.538Z,95398.13
2023-11-29T14:32:49.617Z,95397.50
2023-11-29T14:35:17.633Z,95398.88
2023-11-29T14:37:45.657Z,95395.09
2023-11-29T14:40:14.314Z,95392.91
2023-11-29T14:42:42.251Z,95401.88
2023-11-29T14:45:11.015Z,95394.47
2023-11-29T14:47:40.516Z,95397.09
2023-11-29T14:50:10.064Z,95402.03
2023-11-29T14:52:38.107Z,95402.84
2023-11-29T14:55:06.965Z,95403.50
2023-11-29T14:57:35.925Z,95406.53
2023-11-29T15:00:04.509Z,95396.13
2023-11-29T15:02:32.487Z,95413.31
2023-11-29T15:05:01.834Z,95409.06
2023-11-29T15:07:31.205Z,95415.94
2023-11-29T15:09:59.186Z,95414.44
2023-11-29T15:12:27.159Z,95407.88
2023-11-29T15:14:55.218Z,95413.06
2023-11-29T15:17:23.201Z,95418.66
2023-11-29T15:19:51.374Z,95404.03
2023-11-29T15:22:20.768Z,95410.88
2023-11-29T15:24:48.673Z,95407.06
2023-11-29T15:27:16.929Z,95406.41
2023-11-29T15:29:44.871Z,95399.19
2023-11-29T15:32:12.952Z,95404.34
2023-11-29T15:34:40.988Z,95401.28
2023-11-29T15:37:09.020Z,95404.72
2023-11-29T15:39:39.533Z,95397.22
2023-11-29T15:42:10.030Z,95397.38
2023-11-29T15:44:38.055Z,95399.16
2023-11-29T15:47:06.241Z,95402.59
2023-11-29T15:49:34.202Z,95405.53
2023-11-29T15:52:02.112Z,95405.66
2023-11-29T15:54:30.051Z,95395.28
2023-11-29T15:56:59.366Z,95392.34
2023-11-29T15:59:27.289Z,95396.03
2023-11-29T16:01:55.373Z,95387.94
2023-11-29T16:04:23.402Z,95394.72
2023-11-29T16:06:51.598Z,95391.44
2023-11-29T16:09:19.548Z,95391.88
2023-11-29T16:11:47.504Z,95383.88
2023-11-29T16:14:16.800Z,95391.97
2023-11-29T16:16:44.741Z,95392.44
2023-11-29T16:19:12.691Z,95383.59
2023-11-29T16:21:40.783Z,95387.88
2023-11-29T16:24:09.629Z,95386.38
2023-11-29T16:26:37.619Z,95377.31
2023-11-29T16:29:05.500Z,95382.34
2023-11-29T16:31:34.823Z,95387.59
2023-11-29T16:34:02.888Z,95386.47
2023-11-29T16:36:31.215Z,95392.75
2023-11-29T16:38:59.154Z,95395.56
2023-11-29T16:41:27.138Z,95390.56
2023-11-29T16:43:55.074Z,95394.66
2023-11-29T16:46:25.381Z,95393.00
2023-11-29T16:48:57.085Z,95390.75
2023-11-29T16:51:25.032Z,95383.91
2023-11-29T16:53:52.936Z,95384.91
2023-11-29T16:56:20.883Z,95379.81
2023-11-29T16:58:48.820Z,95383.59
2023-11-29T17:01:22.465Z,95380.56
2023-11-29T17:03:52.376Z,95382.16
2023-11-29T17:06:23.373Z,95370.59
2023-11-29T17:08:51.917Z,95367.78
2023-11-29T17:11:19.964Z,95360.78
2023-11-29T17:13:47.858Z,95371.16
2023-11-29T17:16:16.077Z,95374.84
2023-11-29T17:18:44.046Z,95376.03
2023-11-29T17:21:12.116Z,95370.13
2023-11-29T17:23:41.530Z,95371.25
2023-11-29T17:26:09.507Z,95366.59
2023-11-29T17:28:37.408Z,95358.78
2023-11-29T17:31:05.633Z,95362.25
2023-11-29T17:33:33.641Z,95362.31
2023-11-29T17:36:02.244Z,95368.41
2023-11-29T17:38:30.261Z,95361.03
2023-11-29T17:41:00.042Z,95360.47
2023-11-29T17:43:28.308Z,95350.69
2023-11-29T17:45:57.649Z,95358.34
2023-11-29T17:48:26.358Z,95380.84
2023-11-29T17:50:54.413Z,95374.13
2023-11-29T17:53:22.768Z,95363.63
2023-11-29T17:55:50.986Z,95366.69
2023-11-29T17:58:20.777Z,95351.31
2023-11-29T18:00:49.318Z,95366.88
2023-11-29T18:03:17.776Z,95367.72
2023-11-29T18:05:47.035Z,95370.22
2023-11-29T18:08:15.199Z,95369.38
2023-11-29T18:10:51.562Z,95368.78
2023-11-29T18:13:23.920Z,95334.66
2023-11-29T18:15:52.448Z,95356.19
2023-11-29T18:18:20.809Z,95355.00
2023-11-29T18:20:53.892Z,95355.91
2023-11-29T18:23:22.234Z,95372.44
2023-11-29T18:25:59.046Z,95379.19
2023-11-29T18:28:31.349Z,95380.53
2023-11-29T18:31:00.655Z,95377.31
2023-11-29T18:33:31.384Z,95368.28
2023-11-29T18:35:59.582Z,95376.59
2023-11-29T18:38:28.165Z,95361.66
2023-11-29T18:40:56.404Z,95373.16
2023-11-29T18:43:24.474Z,95374.38
2023-11-29T18:45:54.079Z,95375.34
2023-11-29T18:48:22.196Z,95372.88
2023-11-29T18:50:50.280Z,95376.81
2023-11-29T18:53:18.283Z,95368.97
2023-11-29T18:55:46.281Z,95373.56
2023-11-29T18:58:14.441Z,95374.72
2023-11-29T19:00:42.406Z,95379.66
2023-11-29T19:03:12.740Z,95365.84
2023-11-29T19:05:40.778Z,95372.16
2023-11-29T19:08:08.829Z,95373.97
2023-11-29T19:10:37.048Z,95378.94
2023-11-29T19:13:06.451Z,95366.00
2023-11-29T19:15:34.996Z,95374.56
2023-11-29T19:18:03.678Z,95373.47
2023-11-29T19:20:33.235Z,95372.44
2023-11-29T19:23:01.201Z,95365.81
2023-11-29T19:25:29.300Z,95368.16
2023-11-29T19:27:57.367Z,95365.59
2023-11-29T19:30:25.647Z,95364.69
2023-11-29T19:32:54.702Z,95366.47
2023-11-29T19:35:28.470Z,95366.31
2023-11-29T19:38:00.415Z,95368.84
2023-11-29T19:40:28.759Z,95344.25
2023-11-29T19:42:56.930Z,95367.47
2023-11-29T19:45:25.150Z,95354.69
2023-11-29T19:47:53.321Z,95372.38
2023-11-29T19:50:21.554Z,95357.28
2023-11-29T19:52:55.797Z,95339.28
2023-11-29T19:55:27.750Z,95350.22
2023-11-29T19:57:56.109Z,95365.88
2023-11-29T20:00:24.350Z,95338.63
2023-11-29T20:02:52.772Z,95362.91
2023-11-29T20:05:20.762Z,95361.72
2023-11-29T20:07:49.211Z,95355.13
2023-11-29T20:10:17.883Z,95346.19
2023-11-29T20:12:47.510Z,95361.31
2023-11-29T20:15:15.683Z,95348.22
2023-11-29T20:17:44.610Z,95365.38
2023-11-29T20:20:16.920Z,95359.06
2023-11-29T20:22:52.959Z,95347.88
2023-11-29T20:25:22.641Z,95362.34
2023-11-29T20:27:52.290Z,95336.38
2023-11-29T20:30:20.585Z,95349.25
2023-11-29T20:32:48.849Z,95358.13
2023-11-29T20:35:32.580Z,95357.19
2023-11-29T20:38:04.888Z,95347.72
2023-11-29T20:40:40.911Z,95345.94
2023-11-29T20:43:16.645Z,95344.59
2023-11-29T20:45:45.068Z,95344.47
2023-11-29T20:48:13.622Z,95348.84
2023-11-29T20:50:42.112Z,95346.75
2023-11-29T20:53:17.989Z,95350.28
2023-11-29T20:55:49.527Z,95350.56
2023-11-29T20:58:21.934Z,95351.75
2023-11-29T21:00:50.969Z,95348.06
2023-11-29T21:03:19.666Z,95341.00
2023-11-29T21:05:48.200Z,95343.41
2023-11-29T21:08:16.558Z,95336.03
2023-11-29T21:10:46.320Z,95341.75
2023-11-29T21:13:14.881Z,95327.78
2023-11-29T21:15:44.589Z,95347.75
2023-11-29T21:18:13.261Z,95330.34
2023-11-29T21:20:44.439Z,95345.47
2023-11-29T21:23:13.040Z,95347.66
2023-11-29T21:25:41.247Z,95322.16
2023-11-29T21:28:10.030Z,95344.59
2023-11-29T21:30:38.646Z,95331.09
2023-11-29T21:33:09.084Z,95337.88
2023-11-29T21:35:37.801Z,95337.06
2023-11-29T21:38:06.514Z,95339.22
2023-11-29T21:40:35.240Z,95319.78
2023-11-29T21:43:04.991Z,95332.56
2023-11-29T21:45:33.252Z,95322.78
2023-11-29T21:48:01.700Z,95309.72
2023-11-29T21:50:31.234Z,95336.19
2023-11-29T21:52:59.493Z,95330.22
2023-11-29T21:55:27.576Z,95334.22
2023-11-29T21:57:55.879Z,95320.03
2023-11-29T22:00:24.358Z,95331.50
2023-11-29T22:02:52.423Z,95326.38
2023-11-29T22:05:20.359Z,95318.34
2023-11-29T22:07:49.633Z,95319.59
2023-11-29T22:10:18.797Z,95304.56
2023-11-29T22:12:47.432Z,95297.56
2023-11-29T22:15:15.957Z,95294.91
2023-11-29T22:17:44.271Z,95289.16
2023-11-29T22:20:13.633Z,95303.84
2023-11-29T22:22:41.779Z,95285.22
2023-11-29T22:25:13.254Z,95276.78
2023-11-29T22:27:41.919Z,95292.66
2023-11-29T22:30:12.183Z,95264.63
2023-11-29T22:32:42.269Z,95293.31
2023-11-29T22:35:11.235Z,95249.88
2023-11-29T22:37:39.455Z,95284.16
2023-11-29T22:40:08.942Z,95268.59
2023-11-29T22:42:38.740Z,95282.75
2023-11-29T22:45:08.569Z,95268.84
2023-11-29T22:47:36.811Z,95280.41
2023-11-29T22:50:05.519Z,95295.66
2023-11-29T22:52:33.983Z,95285.88
2023-11-29T22:55:02.589Z,95266.56
2023-11-29T22:57:31.172Z,95260.91
2023-11-29T23:00:00.860Z,95274.81
2023-11-29T23:02:29.369Z,95271.56
2023-11-29T23:04:57.571Z,95272.59
2023-11-29T23:07:25.777Z,95266.91
2023-11-29T23:09:54.043Z,95259.81
2023-11-29T23:12:22.367Z,95258.16
2023-11-29T23:14:50.802Z,95251.09
2023-11-29T23:17:21.522Z,95245.34
2023-11-29T23:19:50.403Z,95234.19
2023-11-29T23:22:18.719Z,95229.13
2023-11-29T23:24:47.047Z,95242.50
2023-11-29T23:27:15.421Z,95231.72
2023-11-29T23:29:43.574Z,95214.47
2023-11-29T23:32:11.877Z,95239.53
2023-11-29T23:34:41.485Z,95240.66
2023-11-29T23:37:09.965Z,95238.69
2023-11-29T23:39:38.305Z,95238.06
2023-11-29T23:42:06.527Z,95245.13
2023-11-29T23:44:34.987Z,95224.19
2023-11-29T23:47:03.210Z,95226.38
2023-11-29T23:49:31.450Z,95207.56
2023-11-29T23:52:01.120Z,95215.16
2023-11-29T23:54:29.650Z,95219.91
2023-11-29T23:56:57.815Z,95224.88
2023-11-29T23:59:25.868Z,95233.44
